Darstellungsparameter: Aktuell verwendete Einstellungen:
Skalierung der Graphiken ... ?
xyx+y,   Skalierungsfaktor:      Skalierung: Modus: x, Faktor: 1
Darstellungszeitraum ... ?
Vom - - bis: - -   Zeitraum: 07.09.2015 - 07.09.2015
Min/Max/Avg-Anzeige ... ?
Zeige MMA aktuell
Zeige MMA Monat
Zeige MMA alles
Zeige --A aktuell
Zeige --A Monat
Zeige --A alles
Keine MMA-Anzeige
MMA:
Average (ber die Originaldaten)
MMA-Basis: 07.09.2015 - 07.09.2015
Quicknavigation für Darstellung... ?
Tage:      1T, 2T, 3T, 5T -1T -2T -3T -5T +1T +2T +3T +5T
Wochen: 1W, 2W, 3W -1W -2W -3W +1W +2W +3W
Monate: 1M, 3M, 6M -1M -3M -6M +1M +3M +6M
Jahre:    1J, 3J, 5J, 10J -1J -3J -5J -10J +1J +3J +5J +10J
Nutze für die Darstellung ... ?
Originaldaten oder Mittelwerte auf ...
Stundenbasis Tagesbasis Wochenbasis
Monatsbasis Jahresbasis      Datenbasis: Original-Daten
Darstellen als:
Statistik (Auto) Statistik J:M      Darstellung:
Zur Graphik,    zurück zur Übersicht aller Sensoren.
 
Tabellarische Datenbersicht: ?
 
Sensor: Nr:Datum:Temp:Abs-Feuchte:Windchill:Wind:
Aussen-T/F 1 07-09-2015 00:00:00 12.7 C 8.57 g/m*3 12.7 C 6.4 km/h
2 07-09-2015 00:05:00 12.7 C 8.57 g/m*3 12.7 C 3.2 km/h
3 07-09-2015 00:10:00 12.6 C 8.52 g/m*3 12.6 C 4.8 km/h
4 07-09-2015 00:15:00 12.6 C 8.63 g/m*3 12.6 C 8.1 km/h
5 07-09-2015 00:20:00 12.6 C 8.63 g/m*3 12.6 C 6.4 km/h
6 07-09-2015 00:25:00 12.5 C 8.58 g/m*3 12.5 C 3.2 km/h
7 07-09-2015 00:30:00 12.5 C 8.58 g/m*3 12.5 C 3.2 km/h
8 07-09-2015 00:35:00 12.5 C 8.58 g/m*3 12.5 C 0 km/h
9 07-09-2015 00:40:00 12.5 C 8.58 g/m*3 12.5 C 1.6 km/h
10 07-09-2015 00:45:00 12.5 C 8.58 g/m*3 12.5 C 4.8 km/h
11 07-09-2015 00:50:00 12.5 C 8.58 g/m*3 12.5 C 0 km/h
12 07-09-2015 00:55:00 12.4 C 8.52 g/m*3 12.4 C 1.6 km/h
13 07-09-2015 01:00:00 12.4 C 8.63 g/m*3 12.4 C 0 km/h
14 07-09-2015 01:05:00 12.3 C 8.58 g/m*3 12.3 C 3.2 km/h
15 07-09-2015 01:10:00 12.3 C 8.69 g/m*3 12.3 C 0 km/h
16 07-09-2015 01:15:00 12.2 C 8.63 g/m*3 12.2 C 1.6 km/h
17 07-09-2015 01:20:00 12.2 C 8.63 g/m*3 12.2 C 1.6 km/h
18 07-09-2015 01:25:00 12.2 C 8.63 g/m*3 12.2 C 4.8 km/h
19 07-09-2015 01:30:00 12.2 C 8.63 g/m*3 12.2 C 3.2 km/h
20 07-09-2015 01:35:00 12.2 C 8.63 g/m*3 12.2 C 4.8 km/h
21 07-09-2015 01:40:00 12.2 C 8.63 g/m*3 12.2 C 4.8 km/h
22 07-09-2015 01:45:00 12.3 C 8.69 g/m*3 12.3 C 4.8 km/h
23 07-09-2015 01:50:00 12.3 C 8.69 g/m*3 12.3 C 4.8 km/h
24 07-09-2015 01:55:00 12.3 C 8.69 g/m*3 12.3 C 4.8 km/h
25 07-09-2015 02:00:00 12.3 C 8.69 g/m*3 12.3 C 4.8 km/h
Sensor: Nr:Datum:Temp:Abs-Feuchte:Windchill:Wind:
Aussen-T/F 26 07-09-2015 02:05:00 12.2 C 8.63 g/m*3 12.2 C 3.2 km/h
27 07-09-2015 02:10:00 12.2 C 8.63 g/m*3 12.2 C 1.6 km/h
28 07-09-2015 02:15:00 12.2 C 8.63 g/m*3 12.2 C 6.4 km/h
29 07-09-2015 02:20:00 12.2 C 8.63 g/m*3 12.2 C 4.8 km/h
30 07-09-2015 02:25:00 12.1 C 8.69 g/m*3 12.1 C 1.6 km/h
31 07-09-2015 02:30:00 12.1 C 8.69 g/m*3 12.1 C 0 km/h
32 07-09-2015 02:35:00 12.1 C 8.69 g/m*3 12.1 C 1.6 km/h
33 07-09-2015 02:40:00 12.1 C 8.69 g/m*3 12.1 C 3.2 km/h
34 07-09-2015 02:45:00 12.1 C 8.69 g/m*3 12.1 C 4.8 km/h
35 07-09-2015 02:50:00 12.1 C 8.69 g/m*3 12.1 C 1.6 km/h
36 07-09-2015 02:55:00 12.1 C 8.69 g/m*3 12.1 C 3.2 km/h
37 07-09-2015 03:00:00 12.1 C 8.69 g/m*3 12.1 C 1.6 km/h
38 07-09-2015 03:05:00 12.1 C 8.79 g/m*3 12.1 C 4.8 km/h
39 07-09-2015 03:10:00 12 C 8.95 g/m*3 12 C 6.4 km/h
40 07-09-2015 03:15:00 11.8 C 8.95 g/m*3 11.8 C 4.8 km/h
41 07-09-2015 03:20:00 11.7 C 9.1 g/m*3 11.7 C 9.7 km/h
42 07-09-2015 03:25:00 11.6 C 9.15 g/m*3 11.6 C 6.4 km/h
43 07-09-2015 03:30:00 11.4 C 9.14 g/m*3 11.4 C 1.6 km/h
44 07-09-2015 03:35:00 11.3 C 9.08 g/m*3 11.3 C 4.8 km/h
45 07-09-2015 03:40:00 11.2 C 9.12 g/m*3 11.2 C 6.4 km/h
46 07-09-2015 03:45:00 11.1 C 9.17 g/m*3 11.1 C 8.1 km/h
47 07-09-2015 03:50:00 11.1 C 9.17 g/m*3 11.1 C 4.8 km/h
48 07-09-2015 03:55:00 11.1 C 9.17 g/m*3 11.1 C 6.4 km/h
49 07-09-2015 04:00:00 11.1 C 9.17 g/m*3 11.1 C 1.6 km/h
50 07-09-2015 04:05:00 11 C 9.21 g/m*3 11 C 4.8 km/h
Sensor: Nr:Datum:Temp:Abs-Feuchte:Windchill:Wind:
Aussen-T/F 51 07-09-2015 04:10:00 11.1 C 9.27 g/m*3 11.1 C 11.3 km/h
52 07-09-2015 04:15:00 11.1 C 9.27 g/m*3 11.1 C 11.3 km/h
53 07-09-2015 04:20:00 11.1 C 9.27 g/m*3 11.1 C 4.8 km/h
54 07-09-2015 04:25:00 11.2 C 9.22 g/m*3 11.2 C 4.8 km/h
55 07-09-2015 04:30:00 11.2 C 9.22 g/m*3 11.2 C 6.4 km/h
56 07-09-2015 04:35:00 11.3 C 9.28 g/m*3 11.3 C 1.6 km/h
57 07-09-2015 04:40:00 11.3 C 9.28 g/m*3 11.3 C 4.8 km/h
58 07-09-2015 04:45:00 11.3 C 9.28 g/m*3 11.3 C 4.8 km/h
59 07-09-2015 04:50:00 11.3 C 9.28 g/m*3 11.3 C 1.6 km/h
60 07-09-2015 04:55:00 11.4 C 9.34 g/m*3 11.4 C 8.1 km/h
61 07-09-2015 05:00:00 11.4 C 9.34 g/m*3 11.4 C 3.2 km/h
62 07-09-2015 05:05:00 11.5 C 9.3 g/m*3 11.5 C 4.8 km/h
63 07-09-2015 05:10:00 11.6 C 9.35 g/m*3 11.6 C 9.7 km/h
64 07-09-2015 05:15:00 11.6 C 9.35 g/m*3 11.6 C 8.1 km/h
65 07-09-2015 05:20:00 11.6 C 9.35 g/m*3 11.6 C 4.8 km/h
66 07-09-2015 05:25:00 11.7 C 9.41 g/m*3 11.7 C 3.2 km/h
67 07-09-2015 05:30:00 11.7 C 9.41 g/m*3 11.7 C 9.7 km/h
68 07-09-2015 05:35:00 11.7 C 9.41 g/m*3 11.7 C 1.6 km/h
69 07-09-2015 05:40:00 11.7 C 9.31 g/m*3 11.7 C 3.2 km/h
70 07-09-2015 05:45:00 11.7 C 9.31 g/m*3 11.7 C 1.6 km/h
71 07-09-2015 05:50:00 11.7 C 9.31 g/m*3 11.7 C 4.8 km/h
72 07-09-2015 05:55:00 11.7 C 9.31 g/m*3 11.7 C 1.6 km/h
73 07-09-2015 06:00:00 11.7 C 9.31 g/m*3 11.7 C 3.2 km/h
74 07-09-2015 06:05:00 11.7 C 9.31 g/m*3 11.7 C 1.6 km/h
75 07-09-2015 06:10:00 11.7 C 9.31 g/m*3 11.7 C 3.2 km/h
Sensor: Nr:Datum:Temp:Abs-Feuchte:Windchill:Wind:
Aussen-T/F 76 07-09-2015 06:15:00 11.7 C 9.31 g/m*3 11.7 C 4.8 km/h
77 07-09-2015 06:20:00 11.7 C 9.31 g/m*3 11.7 C 3.2 km/h
78 07-09-2015 06:25:00 11.7 C 9.31 g/m*3 11.7 C 0 km/h
79 07-09-2015 06:30:00 11.7 C 9.2 g/m*3 11.7 C 3.2 km/h
80 07-09-2015 06:35:00 11.7 C 9.31 g/m*3 11.7 C 4.8 km/h
81 07-09-2015 06:40:00 11.7 C 9.31 g/m*3 11.7 C 1.6 km/h
82 07-09-2015 06:45:00 11.7 C 9.31 g/m*3 11.7 C 1.6 km/h
83 07-09-2015 06:50:00 11.8 C 9.37 g/m*3 11.8 C 3.2 km/h
84 07-09-2015 06:55:00 11.8 C 9.37 g/m*3 11.8 C 0 km/h
85 07-09-2015 07:00:00 11.8 C 9.37 g/m*3 11.8 C 1.6 km/h
86 07-09-2015 07:05:00 11.8 C 9.37 g/m*3 11.8 C 4.8 km/h
87 07-09-2015 07:10:00 11.8 C 9.37 g/m*3 11.8 C 3.2 km/h
88 07-09-2015 07:15:00 11.8 C 9.37 g/m*3 11.8 C 3.2 km/h
89 07-09-2015 07:20:00 11.9 C 9.43 g/m*3 11.9 C 1.6 km/h
90 07-09-2015 07:25:00 11.9 C 9.53 g/m*3 11.9 C 8.1 km/h
91 07-09-2015 07:30:00 11.9 C 9.53 g/m*3 11.9 C 16.1 km/h
92 07-09-2015 07:35:00 12 C 9.48 g/m*3 12 C 4.8 km/h
93 07-09-2015 07:40:00 12.1 C 9.54 g/m*3 12.1 C 3.2 km/h
94 07-09-2015 07:45:00 12.2 C 9.6 g/m*3 12.2 C 4.8 km/h
95 07-09-2015 07:50:00 12.2 C 9.6 g/m*3 12.2 C 8.1 km/h
96 07-09-2015 07:55:00 12.2 C 9.6 g/m*3 12.2 C 8.1 km/h
97 07-09-2015 08:00:00 12.3 C 9.56 g/m*3 12.3 C 6.4 km/h
98 07-09-2015 08:05:00 12.4 C 9.62 g/m*3 12.4 C 11.3 km/h
99 07-09-2015 08:10:00 12.4 C 9.62 g/m*3 12.4 C 4.8 km/h
100 07-09-2015 08:15:00 12.4 C 9.62 g/m*3 12.4 C 4.8 km/h
Sensor: Nr:Datum:Temp:Abs-Feuchte:Windchill:Wind:
Aussen-T/F 101 07-09-2015 08:20:00 12.4 C 9.72 g/m*3 12.4 C 1.6 km/h
102 07-09-2015 08:25:00 12.4 C 9.62 g/m*3 12.4 C 9.7 km/h
103 07-09-2015 08:30:00 12.5 C 9.68 g/m*3 12.5 C 11.3 km/h
104 07-09-2015 08:35:00 12.6 C 9.74 g/m*3 12.6 C 3.2 km/h
105 07-09-2015 08:40:00 12.6 C 9.62 g/m*3 12.6 C 3.2 km/h
106 07-09-2015 08:45:00 12.7 C 9.68 g/m*3 12.7 C 3.2 km/h
107 07-09-2015 08:50:00 12.7 C 9.68 g/m*3 12.7 C 3.2 km/h
108 07-09-2015 08:55:00 12.8 C 9.74 g/m*3 12.8 C 8.1 km/h
109 07-09-2015 09:00:00 12.8 C 9.74 g/m*3 12.8 C 6.4 km/h
110 07-09-2015 09:05:00 12.9 C 9.81 g/m*3 12.9 C 4.8 km/h
111 07-09-2015 09:10:00 12.9 C 9.81 g/m*3 12.9 C 4.8 km/h
112 07-09-2015 09:15:00 13 C 9.75 g/m*3 13 C 1.6 km/h
113 07-09-2015 09:20:00 13.1 C 9.81 g/m*3 13.1 C 3.2 km/h
114 07-09-2015 09:25:00 13.1 C 9.81 g/m*3 13.1 C 1.6 km/h
115 07-09-2015 09:30:00 13.1 C 9.81 g/m*3 13.1 C 3.2 km/h
116 07-09-2015 09:35:00 13.1 C 9.81 g/m*3 13.1 C 4.8 km/h
117 07-09-2015 09:40:00 13.1 C 9.81 g/m*3 13.1 C 4.8 km/h
118 07-09-2015 09:45:00 13.1 C 9.81 g/m*3 13.1 C 6.4 km/h
119 07-09-2015 09:50:00 13.2 C 9.87 g/m*3 13.2 C 8.1 km/h
120 07-09-2015 09:55:00 13.2 C 9.87 g/m*3 13.2 C 6.4 km/h
121 07-09-2015 10:00:00 13.2 C 9.87 g/m*3 13.2 C 4.8 km/h
122 07-09-2015 10:05:00 13.3 C 10.05 g/m*3 13.3 C 6.4 km/h
123 07-09-2015 10:10:00 13.3 C 10.05 g/m*3 13.3 C 3.2 km/h
124 07-09-2015 10:15:00 13.3 C 10.05 g/m*3 13.3 C 9.7 km/h
125 07-09-2015 10:20:00 13.4 C 10.11 g/m*3 13.4 C 1.6 km/h
Sensor: Nr:Datum:Temp:Abs-Feuchte:Windchill:Wind:
Aussen-T/F 126 07-09-2015 10:25:00 13.4 C 10.11 g/m*3 13.4 C 3.2 km/h
127 07-09-2015 10:30:00 13.4 C 10.11 g/m*3 13.4 C 4.8 km/h
128 07-09-2015 10:35:00 13.6 C 10.24 g/m*3 13.6 C 6.4 km/h
129 07-09-2015 10:40:00 13.5 C 10.18 g/m*3 13.5 C 9.7 km/h
130 07-09-2015 10:45:00 13.6 C 10.24 g/m*3 13.6 C 6.4 km/h
131 07-09-2015 10:50:00 13.6 C 10.24 g/m*3 13.6 C 11.3 km/h
132 07-09-2015 10:55:00 13.6 C 10.24 g/m*3 13.6 C 11.3 km/h
133 07-09-2015 11:00:00 13.6 C 10.24 g/m*3 13.6 C 11.3 km/h
134 07-09-2015 11:05:00 13.7 C 10.18 g/m*3 13.7 C 9.7 km/h
135 07-09-2015 11:10:00 13.7 C 10.3 g/m*3 13.7 C 9.7 km/h
136 07-09-2015 11:15:00 13.8 C 10.37 g/m*3 13.8 C 9.7 km/h
137 07-09-2015 11:20:00 13.8 C 10.37 g/m*3 13.8 C 9.7 km/h
138 07-09-2015 11:25:00 13.8 C 10.37 g/m*3 13.8 C 8.1 km/h
139 07-09-2015 11:30:00 13.7 C 10.42 g/m*3 13.7 C 6.4 km/h
140 07-09-2015 11:35:00 13.7 C 10.42 g/m*3 13.7 C 11.3 km/h
141 07-09-2015 11:40:00 13.8 C 10.48 g/m*3 13.8 C 12.9 km/h
142 07-09-2015 11:45:00 13.9 C 10.55 g/m*3 13.9 C 9.7 km/h
143 07-09-2015 11:50:00 13.9 C 10.43 g/m*3 13.9 C 8.1 km/h
144 07-09-2015 11:55:00 14 C 10.37 g/m*3 14 C 9.7 km/h
145 07-09-2015 12:00:00 14 C 10.37 g/m*3 14 C 4.8 km/h
146 07-09-2015 12:05:00 14.1 C 10.44 g/m*3 14.1 C 6.4 km/h
147 07-09-2015 12:10:00 14.2 C 10.5 g/m*3 14.2 C 4.8 km/h
148 07-09-2015 12:15:00 14.2 C 10.5 g/m*3 14.2 C 4.8 km/h
149 07-09-2015 12:20:00 14.3 C 10.57 g/m*3 14.3 C 9.7 km/h
150 07-09-2015 12:25:00 14.4 C 10.51 g/m*3 14.4 C 6.4 km/h
Sensor: Nr:Datum:Temp:Abs-Feuchte:Windchill:Wind:
Aussen-T/F 151 07-09-2015 12:30:00 14.4 C 10.63 g/m*3 14.4 C 8.1 km/h
152 07-09-2015 12:35:00 14.4 C 10.63 g/m*3 14.4 C 9.7 km/h
153 07-09-2015 12:40:00 14.4 C 10.63 g/m*3 14.4 C 8.1 km/h
154 07-09-2015 12:45:00 14.5 C 10.7 g/m*3 14.5 C 11.3 km/h
155 07-09-2015 12:50:00 14.6 C 10.76 g/m*3 14.6 C 11.3 km/h
156 07-09-2015 12:55:00 14.7 C 10.7 g/m*3 14.7 C 8.1 km/h
157 07-09-2015 13:00:00 14.7 C 10.58 g/m*3 14.7 C 16.1 km/h
158 07-09-2015 13:05:00 14.7 C 10.58 g/m*3 14.7 C 11.3 km/h
159 07-09-2015 13:10:00 14.7 C 10.7 g/m*3 14.7 C 8.1 km/h
160 07-09-2015 13:15:00 14.8 C 10.77 g/m*3 14.8 C 8.1 km/h
161 07-09-2015 13:20:00 14.9 C 10.71 g/m*3 14.9 C 6.4 km/h
162 07-09-2015 13:25:00 15 C 10.77 g/m*3 15 C 8.1 km/h
163 07-09-2015 13:30:00 15.1 C 10.71 g/m*3 15.1 C 17.7 km/h
164 07-09-2015 13:35:00 15.2 C 10.77 g/m*3 15.2 C 17.7 km/h
165 07-09-2015 13:40:00 15.3 C 10.84 g/m*3 15.3 C 9.7 km/h
166 07-09-2015 13:45:00 15.3 C 10.84 g/m*3 15.3 C 6.4 km/h
167 07-09-2015 13:50:00 15.4 C 11.04 g/m*3 15.4 C 6.4 km/h
168 07-09-2015 13:55:00 15.4 C 10.9 g/m*3 15.4 C 6.4 km/h
169 07-09-2015 14:00:00 15.6 C 10.91 g/m*3 15.6 C 9.7 km/h
170 07-09-2015 14:05:00 15.7 C 11.11 g/m*3 15.7 C 8.1 km/h
171 07-09-2015 14:10:00 15.9 C 10.97 g/m*3 15.9 C 9.7 km/h
172 07-09-2015 14:15:00 16.1 C 10.97 g/m*3 16.1 C 9.7 km/h
173 07-09-2015 14:20:00 16.2 C 11.17 g/m*3 16.2 C 9.7 km/h
174 07-09-2015 14:25:00 16.2 C 10.89 g/m*3 16.2 C 11.3 km/h
175 07-09-2015 14:30:00 16.3 C 11.1 g/m*3 16.3 C 9.7 km/h
Sensor: Nr:Datum:Temp:Abs-Feuchte:Windchill:Wind:
Aussen-T/F 176 07-09-2015 14:35:00 16.2 C 11.03 g/m*3 16.2 C 9.7 km/h
177 07-09-2015 14:40:00 16.2 C 11.03 g/m*3 16.2 C 11.3 km/h
178 07-09-2015 14:45:00 16.3 C 11.1 g/m*3 16.3 C 8.1 km/h
179 07-09-2015 14:50:00 16.3 C 11.1 g/m*3 16.3 C 9.7 km/h
180 07-09-2015 14:55:00 16.2 C 11.03 g/m*3 16.2 C 11.3 km/h
181 07-09-2015 15:00:00 16.2 C 11.03 g/m*3 16.2 C 8.1 km/h
182 07-09-2015 15:05:00 16.2 C 10.89 g/m*3 16.2 C 4.8 km/h
183 07-09-2015 15:10:00 16.3 C 11.1 g/m*3 16.3 C 6.4 km/h
184 07-09-2015 15:15:00 16.4 C 11.03 g/m*3 16.4 C 4.8 km/h
185 07-09-2015 15:20:00 16.6 C 11.02 g/m*3 16.6 C 9.7 km/h
186 07-09-2015 15:25:00 16.5 C 11.09 g/m*3 16.5 C 9.7 km/h
187 07-09-2015 15:30:00 16.4 C 10.89 g/m*3 16.4 C 9.7 km/h
188 07-09-2015 15:35:00 16.2 C 10.89 g/m*3 16.2 C 9.7 km/h
189 07-09-2015 15:40:00 16.2 C 11.03 g/m*3 16.2 C 6.4 km/h
190 07-09-2015 15:45:00 16.1 C 11.1 g/m*3 16.1 C 8.1 km/h
191 07-09-2015 15:50:00 16.1 C 11.1 g/m*3 16.1 C 6.4 km/h
192 07-09-2015 15:55:00 16.1 C 11.24 g/m*3 16.1 C 4.8 km/h
193 07-09-2015 16:00:00 16.1 C 11.1 g/m*3 16.1 C 4.8 km/h
194 07-09-2015 16:05:00 16.1 C 10.97 g/m*3 16.1 C 6.4 km/h
195 07-09-2015 16:10:00 16 C 10.9 g/m*3 16 C 9.7 km/h
196 07-09-2015 16:15:00 16.1 C 11.1 g/m*3 16.1 C 6.4 km/h
197 07-09-2015 16:20:00 16.2 C 11.17 g/m*3 16.2 C 4.8 km/h
198 07-09-2015 16:25:00 16.2 C 10.89 g/m*3 16.2 C 6.4 km/h
199 07-09-2015 16:30:00 16.1 C 10.97 g/m*3 16.1 C 9.7 km/h
200 07-09-2015 16:35:00 16.1 C 11.1 g/m*3 16.1 C 9.7 km/h
Sensor: Nr:Datum:Temp:Abs-Feuchte:Windchill:Wind:
Aussen-T/F 201 07-09-2015 16:40:00 16 C 11.17 g/m*3 16 C 11.3 km/h
202 07-09-2015 16:45:00 15.8 C 11.31 g/m*3 15.8 C 8.1 km/h
203 07-09-2015 16:50:00 15.5 C 11.24 g/m*3 15.5 C 6.4 km/h
204 07-09-2015 16:55:00 15.3 C 11.36 g/m*3 15.3 C 1.6 km/h
205 07-09-2015 17:00:00 15.2 C 11.42 g/m*3 15.2 C 0 km/h
206 07-09-2015 17:05:00 15.2 C 11.42 g/m*3 15.2 C 0 km/h
207 07-09-2015 17:10:00 15.2 C 11.68 g/m*3 15.2 C 0 km/h
208 07-09-2015 17:15:00 15.2 C 11.55 g/m*3 15.2 C 0 km/h
209 07-09-2015 17:20:00 15.2 C 11.55 g/m*3 15.2 C 0 km/h
210 07-09-2015 17:25:00 15.2 C 11.55 g/m*3 15.2 C 0 km/h
211 07-09-2015 17:30:00 15.2 C 11.68 g/m*3 15.2 C 0 km/h
212 07-09-2015 17:35:00 15.2 C 11.68 g/m*3 15.2 C 0 km/h
213 07-09-2015 17:40:00 15.2 C 11.68 g/m*3 15.2 C 0 km/h
214 07-09-2015 17:45:00 15.2 C 11.81 g/m*3 15.2 C 0 km/h
215 07-09-2015 17:50:00 15.1 C 11.74 g/m*3 15.1 C 0 km/h
216 07-09-2015 17:55:00 15.1 C 11.74 g/m*3 15.1 C 0 km/h
217 07-09-2015 18:00:00 15 C 11.67 g/m*3 15 C 0 km/h
218 07-09-2015 18:05:00 15.1 C 11.74 g/m*3 15.1 C 0 km/h
219 07-09-2015 18:10:00 15 C 11.54 g/m*3 15 C 1.6 km/h
220 07-09-2015 18:15:00 14.9 C 11.47 g/m*3 14.9 C 0 km/h
221 07-09-2015 18:20:00 14.9 C 11.6 g/m*3 14.9 C 0 km/h
222 07-09-2015 18:25:00 14.8 C 11.4 g/m*3 14.8 C 0 km/h
223 07-09-2015 18:30:00 14.8 C 11.53 g/m*3 14.8 C 0 km/h
224 07-09-2015 18:35:00 14.8 C 11.53 g/m*3 14.8 C 0 km/h
225 07-09-2015 18:40:00 14.8 C 11.53 g/m*3 14.8 C 0 km/h
Sensor: Nr:Datum:Temp:Abs-Feuchte:Windchill:Wind:
Aussen-T/F 226 07-09-2015 18:45:00 14.7 C 11.46 g/m*3 14.7 C 0 km/h
227 07-09-2015 18:50:00 14.7 C 11.58 g/m*3 14.7 C 0 km/h
228 07-09-2015 18:55:00 14.7 C 11.58 g/m*3 14.7 C 0 km/h
229 07-09-2015 19:00:00 14.6 C 11.51 g/m*3 14.6 C 0 km/h
230 07-09-2015 19:05:00 14.5 C 11.44 g/m*3 14.5 C 1.6 km/h
231 07-09-2015 19:10:00 14.5 C 11.44 g/m*3 14.5 C 0 km/h
232 07-09-2015 19:15:00 14.5 C 11.32 g/m*3 14.5 C 1.6 km/h
233 07-09-2015 19:20:00 14.5 C 11.19 g/m*3 14.5 C 0 km/h
234 07-09-2015 19:25:00 14.6 C 11.39 g/m*3 14.6 C 1.6 km/h
235 07-09-2015 19:30:00 14.6 C 11.26 g/m*3 14.6 C 3.2 km/h
236 07-09-2015 19:35:00 14.6 C 11.26 g/m*3 14.6 C 0 km/h
237 07-09-2015 19:40:00 14.6 C 11.39 g/m*3 14.6 C 0 km/h
238 07-09-2015 19:45:00 14.6 C 11.39 g/m*3 14.6 C 0 km/h
239 07-09-2015 19:50:00 14.4 C 11.25 g/m*3 14.4 C 0 km/h
240 07-09-2015 19:55:00 14.3 C 11.18 g/m*3 14.3 C 0 km/h
241 07-09-2015 20:00:00 14.3 C 11.18 g/m*3 14.3 C 1.6 km/h
242 07-09-2015 20:05:00 14.2 C 11.23 g/m*3 14.2 C 0 km/h
243 07-09-2015 20:10:00 14.1 C 11.17 g/m*3 14.1 C 0 km/h
244 07-09-2015 20:15:00 14 C 11.1 g/m*3 14 C 0 km/h
245 07-09-2015 20:20:00 13.9 C 11.03 g/m*3 13.9 C 0 km/h
246 07-09-2015 20:25:00 13.9 C 11.03 g/m*3 13.9 C 0 km/h
247 07-09-2015 20:30:00 13.9 C 11.15 g/m*3 13.9 C 0 km/h
248 07-09-2015 20:35:00 13.9 C 11.15 g/m*3 13.9 C 0 km/h
249 07-09-2015 20:40:00 13.9 C 11.15 g/m*3 13.9 C 0 km/h
250 07-09-2015 20:45:00 13.8 C 11.08 g/m*3 13.8 C 0 km/h
Sensor: Nr:Datum:Temp:Abs-Feuchte:Windchill:Wind:
Aussen-T/F 251 07-09-2015 20:50:00 13.8 C 11.08 g/m*3 13.8 C 0 km/h
252 07-09-2015 20:55:00 13.8 C 11.08 g/m*3 13.8 C 0 km/h
253 07-09-2015 21:00:00 13.8 C 11.08 g/m*3 13.8 C 0 km/h
254 07-09-2015 21:05:00 13.8 C 11.08 g/m*3 13.8 C 0 km/h
255 07-09-2015 21:10:00 13.8 C 11.08 g/m*3 13.8 C 0 km/h
256 07-09-2015 21:15:00 13.8 C 11.08 g/m*3 13.8 C 1.6 km/h
257 07-09-2015 21:20:00 13.8 C 11.08 g/m*3 13.8 C 0 km/h
258 07-09-2015 21:25:00 13.8 C 11.08 g/m*3 13.8 C 0 km/h
259 07-09-2015 21:30:00 13.8 C 11.08 g/m*3 13.8 C 0 km/h
260 07-09-2015 21:35:00 13.8 C 11.08 g/m*3 13.8 C 0 km/h
261 07-09-2015 21:40:00 13.8 C 11.08 g/m*3 13.8 C 0 km/h
262 07-09-2015 21:45:00 13.8 C 11.08 g/m*3 13.8 C 0 km/h
263 07-09-2015 21:50:00 13.8 C 11.08 g/m*3 13.8 C 0 km/h
264 07-09-2015 21:55:00 13.8 C 11.08 g/m*3 13.8 C 0 km/h
265 07-09-2015 22:00:00 13.8 C 11.08 g/m*3 13.8 C 0 km/h
266 07-09-2015 22:05:00 13.8 C 11.08 g/m*3 13.8 C 0 km/h
267 07-09-2015 22:10:00 13.8 C 11.08 g/m*3 13.8 C 0 km/h
268 07-09-2015 22:15:00 13.8 C 11.08 g/m*3 13.8 C 0 km/h
269 07-09-2015 22:20:00 13.8 C 11.08 g/m*3 13.8 C 0 km/h
270 07-09-2015 22:25:00 13.8 C 11.08 g/m*3 13.8 C 0 km/h
271 07-09-2015 22:30:00 13.8 C 11.08 g/m*3 13.8 C 0 km/h
272 07-09-2015 22:35:00 13.9 C 11.15 g/m*3 13.9 C 3.2 km/h
273 07-09-2015 22:40:00 13.9 C 11.15 g/m*3 13.9 C 6.4 km/h
274 07-09-2015 22:45:00 14 C 11.22 g/m*3 14 C 6.4 km/h
275 07-09-2015 22:50:00 14.1 C 11.29 g/m*3 14.1 C 0 km/h
Sensor: Nr:Datum:Temp:Abs-Feuchte:Windchill:Wind:
Aussen-T/F 276 07-09-2015 22:55:00 14.1 C 11.29 g/m*3 14.1 C 0 km/h
277 07-09-2015 23:00:00 14.1 C 11.29 g/m*3 14.1 C 0 km/h
278 07-09-2015 23:05:00 14 C 11.22 g/m*3 14 C 0 km/h
279 07-09-2015 23:10:00 13.9 C 11.15 g/m*3 13.9 C 0 km/h
280 07-09-2015 23:15:00 13.9 C 11.27 g/m*3 13.9 C 0 km/h
281 07-09-2015 23:20:00 13.8 C 11.2 g/m*3 13.8 C 0 km/h
282 07-09-2015 23:25:00 13.8 C 11.2 g/m*3 13.8 C 1.6 km/h
283 07-09-2015 23:30:00 13.8 C 11.2 g/m*3 13.8 C 1.6 km/h
284 07-09-2015 23:35:00 13.8 C 11.2 g/m*3 13.8 C 0 km/h
285 07-09-2015 23:40:00 13.8 C 11.2 g/m*3 13.8 C 0 km/h
286 07-09-2015 23:45:00 13.7 C 11.13 g/m*3 13.7 C 0 km/h
287 07-09-2015 23:50:00 13.7 C 11.13 g/m*3 13.7 C 0 km/h
288 07-09-2015 23:55:00 13.7 C 11.13 g/m*3 13.7 C 0 km/h

Legende:
   Min
   Max


Maximal/Minimal-Werte vom 07.09.2015 - 07.09.2015

Sensor Min Max Avg
Temp
(Aussen-T/F)
11 °C
07-09-2015  04:05:00
16.6 °C
07-09-2015  15:20:00
13.56 °C
Abs-Feuchte
(Aussen-T/F)
8.52 g/m*3
07-09-2015  00:10:00
11.81 g/m*3
07-09-2015  17:45:00
10.21 g/m*3
Windchill
(Aussen-T/F)
11 C
07-09-2015  04:05:00
16.6 C
07-09-2015  15:20:00
13.52 C

Die Daten stammen von einer Davis Vantage Pro 2 Wetter-Station und werden unter Linux mit der Software wview2wettercgi und aufbereitet. Alle Angaben erfolgen ohne Gewähr für ihre Vollständigkeit oder Richtigkeit.
Kontakt: Rainer Krienke krienke@uni-koblenz.de . Meine Webseiten an der Uni Koblenz oder privat.
Version: $Revision: 0.78 $